createdAt,value
2023-11-22T00:01:52.415Z,0.61
2023-11-22T00:04:21.616Z,0.59
2023-11-22T00:06:50.023Z,0.58
2023-11-22T00:09:23.358Z,0.57
2023-11-22T00:11:51.760Z,0.56
2023-11-22T00:14:20.296Z,0.57
2023-11-22T00:16:49.473Z,0.56
2023-11-22T00:19:19.669Z,0.54
2023-11-22T00:21:48.145Z,0.53
2023-11-22T00:24:16.481Z,0.52
2023-11-22T00:26:45.117Z,0.54
2023-11-22T00:29:13.497Z,0.54
2023-11-22T00:31:41.964Z,0.57
2023-11-22T00:34:10.348Z,0.54
2023-11-22T00:36:38.677Z,0.53
2023-11-22T00:39:07.096Z,0.52
2023-11-22T00:41:37.011Z,0.48
2023-11-22T00:44:07.306Z,0.43
2023-11-22T00:46:36.164Z,0.38
2023-11-22T00:49:09.731Z,0.36
2023-11-22T00:51:39.038Z,0.36
2023-11-22T00:54:08.234Z,0.35
2023-11-22T00:56:37.500Z,0.34
2023-11-22T00:59:06.044Z,0.34
2023-11-22T01:01:34.453Z,0.34
2023-11-22T01:04:02.940Z,0.38
2023-11-22T01:06:33.586Z,0.38
2023-11-22T01:09:01.870Z,0.37
2023-11-22T01:11:30.285Z,0.37
2023-11-22T01:13:58.727Z,0.36
2023-11-22T01:16:27.226Z,0.36
2023-11-22T01:18:55.930Z,0.38
2023-11-22T01:21:24.696Z,0.38
2023-11-22T01:23:53.074Z,0.40
2023-11-22T01:26:21.510Z,0.39
2023-11-22T01:28:49.938Z,0.38
2023-11-22T01:31:22.380Z,0.35
2023-11-22T01:33:51.317Z,0.33
2023-11-22T01:36:20.201Z,0.28
2023-11-22T01:38:48.677Z,0.25
2023-11-22T01:41:17.283Z,0.21
2023-11-22T01:43:45.737Z,0.21
2023-11-22T01:46:27.070Z,0.22
2023-11-22T01:48:56.322Z,0.18
2023-11-22T01:51:25.943Z,0.19
2023-11-22T01:53:57.071Z,0.18
2023-11-22T01:56:28.299Z,0.16
2023-11-22T01:58:59.135Z,0.14
2023-11-22T02:01:30.135Z,0.15
2023-11-22T02:03:59.398Z,0.15
2023-11-22T02:06:50.650Z,0.16
2023-11-22T02:10:20.882Z,0.14
2023-11-22T02:13:06.108Z,0.17
2023-11-22T02:15:38.752Z,0.18
2023-11-22T02:18:13.004Z,0.18
2023-11-22T02:21:04.660Z,0.20
2023-11-22T02:23:38.643Z,0.19
2023-11-22T02:26:07.015Z,0.19
2023-11-22T02:28:35.498Z,0.20
2023-11-22T02:31:07.628Z,0.20
2023-11-22T02:33:47.827Z,0.21
2023-11-22T02:36:16.165Z,0.24
2023-11-22T02:38:47.295Z,0.24
2023-11-22T02:41:15.865Z,0.20
2023-11-22T02:43:44.505Z,0.20
2023-11-22T02:46:13.012Z,0.18
2023-11-22T02:48:41.478Z,0.17
2023-11-22T02:51:11.709Z,0.15
2023-11-22T02:53:41.274Z,0.15
2023-11-22T02:56:10.014Z,0.14
2023-11-22T02:58:38.572Z,0.12
2023-11-22T03:01:08.844Z,0.10
2023-11-22T03:03:55.593Z,0.09
2023-11-22T03:06:46.820Z,0.12
2023-11-22T03:09:18.689Z,0.11
2023-11-22T03:11:47.473Z,0.10
2023-11-22T03:14:16.942Z,0.10
2023-11-22T03:16:45.377Z,0.10
2023-11-22T03:19:14.781Z,0.08
2023-11-22T03:21:45.381Z,0.05
2023-11-22T03:24:14.286Z,0.04
2023-11-22T03:26:43.479Z,0.04
2023-11-22T03:29:11.978Z,0.05
2023-11-22T03:31:41.069Z,0.04
2023-11-22T03:34:09.534Z,0.03
2023-11-22T03:36:37.918Z,-0.00
2023-11-22T03:39:06.496Z,-0.02
2023-11-22T03:41:35.636Z,-0.05
2023-11-22T03:44:10.280Z,-0.04
2023-11-22T03:46:39.754Z,-0.05
2023-11-22T03:49:09.649Z,-0.04
2023-11-22T03:51:39.175Z,-0.03
2023-11-22T03:54:08.352Z,-0.03
2023-11-22T03:56:36.981Z,-0.03
2023-11-22T03:59:05.326Z,-0.01
2023-11-22T04:01:33.852Z,-0.02
2023-11-22T04:04:02.435Z,-0.02
2023-11-22T04:06:30.848Z,-0.04
2023-11-22T04:09:00.255Z,-0.04
2023-11-22T04:11:30.623Z,-0.02
2023-11-22T04:13:58.976Z,-0.04
2023-11-22T04:16:27.761Z,-0.05
2023-11-22T04:18:56.631Z,-0.07
2023-11-22T04:21:25.628Z,-0.10
2023-11-22T04:23:53.917Z,-0.13
2023-11-22T04:26:23.314Z,-0.14
2023-11-22T04:28:51.890Z,-0.16
2023-11-22T04:31:20.489Z,-0.18
2023-11-22T04:33:49.487Z,-0.19
2023-11-22T04:36:18.369Z,-0.19
2023-11-22T04:38:46.724Z,-0.19
2023-11-22T04:41:15.866Z,-0.18
2023-11-22T04:43:46.114Z,-0.16
2023-11-22T04:46:14.635Z,-0.15
2023-11-22T04:48:46.700Z,-0.13
2023-11-22T04:51:18.054Z,-0.13
2023-11-22T04:53:47.255Z,-0.16
2023-11-22T04:56:15.877Z,-0.17
2023-11-22T04:58:44.209Z,-0.17
2023-11-22T05:01:12.701Z,-0.17
2023-11-22T05:03:41.149Z,-0.15
2023-11-22T05:06:09.985Z,-0.15
2023-11-22T05:08:38.864Z,-0.16
2023-11-22T05:11:07.472Z,-0.17
2023-11-22T05:13:36.315Z,-0.18
2023-11-22T05:16:05.088Z,-0.17
2023-11-22T05:18:33.506Z,-0.20
2023-11-22T05:21:02.089Z,-0.23
2023-11-22T05:23:30.619Z,-0.24
2023-11-22T05:26:00.955Z,-0.24
2023-11-22T05:28:29.489Z,-0.23
2023-11-22T05:30:58.068Z,-0.24
2023-11-22T05:33:26.614Z,-0.24
2023-11-22T05:35:55.538Z,-0.24
2023-11-22T05:38:23.997Z,-0.23
2023-11-22T05:40:52.488Z,-0.21
2023-11-22T05:43:26.966Z,-0.23
2023-11-22T05:45:55.594Z,-0.23
2023-11-22T05:48:23.994Z,-0.22
2023-11-22T05:50:52.446Z,-0.24
2023-11-22T05:53:22.499Z,-0.25
2023-11-22T05:55:51.249Z,-0.25
2023-11-22T05:58:22.805Z,-0.25
2023-11-22T06:00:51.084Z,-0.25
2023-11-22T06:03:21.175Z,-0.25
2023-11-22T06:05:50.110Z,-0.24
2023-11-22T06:08:19.033Z,-0.23
2023-11-22T06:10:47.989Z,-0.21
2023-11-22T06:13:16.650Z,-0.20
2023-11-22T06:15:45.571Z,-0.19
2023-11-22T06:18:15.409Z,-0.19
2023-11-22T06:20:44.213Z,-0.16
2023-11-22T06:23:12.765Z,-0.15
2023-11-22T06:25:44.924Z,-0.14
2023-11-22T06:28:13.805Z,-0.14
2023-11-22T06:30:43.458Z,-0.14
2023-11-22T06:33:11.823Z,-0.13
2023-11-22T06:35:40.298Z,-0.12
2023-11-22T06:38:09.598Z,-0.12
2023-11-22T06:40:38.262Z,-0.10
2023-11-22T06:43:07.040Z,-0.11
2023-11-22T06:45:36.147Z,-0.10
2023-11-22T06:48:05.129Z,-0.08
2023-11-22T06:50:33.955Z,-0.06
2023-11-22T06:53:04.896Z,-0.05
2023-11-22T06:55:34.422Z,-0.04
2023-11-22T06:58:02.698Z,-0.02
2023-11-22T07:00:32.154Z,0.01
2023-11-22T07:03:00.976Z,0.04
2023-11-22T07:05:31.726Z,0.07
2023-11-22T07:08:00.869Z,0.08
2023-11-22T07:10:29.347Z,0.11
2023-11-22T07:12:57.820Z,0.12
2023-11-22T07:15:28.208Z,0.14
2023-11-22T07:17:57.102Z,0.15
2023-11-22T07:20:25.538Z,0.17
2023-11-22T07:22:58.945Z,0.19
2023-11-22T07:25:27.913Z,0.21
2023-11-22T07:27:56.397Z,0.23
2023-11-22T07:30:24.784Z,0.25
2023-11-22T07:32:56.156Z,0.27
2023-11-22T07:35:24.958Z,0.28
2023-11-22T07:37:53.409Z,0.30
2023-11-22T07:40:23.496Z,0.31
2023-11-22T07:42:52.188Z,0.34
2023-11-22T07:45:20.585Z,0.35
2023-11-22T07:47:49.067Z,0.38
2023-11-22T07:50:18.293Z,0.41
2023-11-22T07:52:47.454Z,0.45
2023-11-22T07:55:15.842Z,0.47
2023-11-22T07:57:45.601Z,0.48
2023-11-22T08:00:14.885Z,0.48
2023-11-22T08:02:44.838Z,0.46
2023-11-22T08:05:16.034Z,0.45
2023-11-22T08:07:48.902Z,0.43
2023-11-22T08:10:20.333Z,0.41
2023-11-22T08:12:51.673Z,0.42
2023-11-22T08:15:21.801Z,0.42
2023-11-22T08:17:50.400Z,0.42
2023-11-22T08:20:20.093Z,0.35
2023-11-22T08:22:52.492Z,0.31
2023-11-22T08:25:21.688Z,0.25
2023-11-22T08:27:51.185Z,0.17
2023-11-22T08:30:19.761Z,0.09
2023-11-22T08:32:55.166Z,0.05
2023-11-22T08:35:25.376Z,0.02
2023-11-22T08:37:54.217Z,-0.04
2023-11-22T08:40:23.367Z,-0.11
2023-11-22T08:42:52.128Z,-0.15
2023-11-22T08:45:21.198Z,-0.20
2023-11-22T08:47:51.495Z,-0.22
2023-11-22T08:50:21.492Z,-0.27
2023-11-22T08:52:54.241Z,-0.32
2023-11-22T08:55:23.516Z,-0.36
2023-11-22T08:57:54.981Z,-0.39
2023-11-22T09:00:24.077Z,-0.38
2023-11-22T09:02:53.120Z,-0.33
2023-11-22T09:05:23.096Z,-0.33
2023-11-22T09:07:52.529Z,-0.34
2023-11-22T09:10:23.386Z,-0.34
2023-11-22T09:12:52.953Z,-0.32
2023-11-22T09:15:27.845Z,-0.27
2023-11-22T09:17:56.843Z,-0.18
2023-11-22T09:20:25.679Z,-0.06
2023-11-22T09:22:55.880Z,0.02
2023-11-22T09:25:32.343Z,0.08
2023-11-22T09:28:00.922Z,0.14
2023-11-22T09:30:34.643Z,0.22
2023-11-22T09:33:11.411Z,0.29
2023-11-22T09:35:40.977Z,0.36
2023-11-22T09:38:13.862Z,0.40
2023-11-22T09:40:46.854Z,0.44
2023-11-22T09:43:19.691Z,0.48
2023-11-22T09:45:54.182Z,0.55
2023-11-22T09:48:29.701Z,0.59
2023-11-22T09:51:04.396Z,0.60
2023-11-22T09:53:41.891Z,0.64
2023-11-22T09:56:11.604Z,0.65
2023-11-22T09:58:45.396Z,0.66
2023-11-22T10:01:15.171Z,0.67
2023-11-22T10:03:43.609Z,0.66
2023-11-22T10:06:12.329Z,0.65
2023-11-22T10:08:40.733Z,0.65
2023-11-22T10:11:09.904Z,0.64
2023-11-22T10:13:38.391Z,0.68
2023-11-22T10:16:19.776Z,0.72
2023-11-22T10:18:49.985Z,0.77
2023-11-22T10:21:27.274Z,0.81
2023-11-22T10:24:03.671Z,0.81
2023-11-22T10:26:33.382Z,0.79
2023-11-22T10:29:03.740Z,0.79
2023-11-22T10:31:35.946Z,0.82
2023-11-22T10:34:05.157Z,0.88
2023-11-22T10:36:33.946Z,0.94
2023-11-22T10:39:04.323Z,1.02
2023-11-22T10:41:34.506Z,1.08
2023-11-22T10:44:04.922Z,1.15
2023-11-22T10:46:33.676Z,1.19
2023-11-22T10:49:02.259Z,1.25
2023-11-22T10:51:34.778Z,1.27
2023-11-22T10:54:05.471Z,1.27
2023-11-22T10:56:41.030Z,1.26
2023-11-22T10:59:16.085Z,1.23
2023-11-22T11:01:54.263Z,1.18
2023-11-22T11:04:37.414Z,1.19
2023-11-22T11:07:08.260Z,1.22
2023-11-22T11:09:38.375Z,1.23
2023-11-22T11:12:09.121Z,1.25
2023-11-22T11:14:38.888Z,1.30
2023-11-22T11:17:08.754Z,1.31
2023-11-22T11:19:37.404Z,1.33
2023-11-22T11:22:10.678Z,1.37
2023-11-22T11:24:45.759Z,1.38
2023-11-22T11:27:14.635Z,1.38
2023-11-22T11:29:45.198Z,1.35
2023-11-22T11:32:36.733Z,1.33
2023-11-22T11:35:09.453Z,1.32
2023-11-22T11:37:38.989Z,1.31
2023-11-22T11:40:36.330Z,1.29
2023-11-22T11:43:06.246Z,1.28
2023-11-22T11:45:47.363Z,1.28
2023-11-22T11:48:19.570Z,1.29
2023-11-22T11:50:49.201Z,1.24
2023-11-22T11:53:21.860Z,1.21
2023-11-22T11:55:52.668Z,1.19
2023-11-22T11:58:24.675Z,1.15
2023-11-22T12:01:00.157Z,1.16
2023-11-22T12:03:28.796Z,1.15
2023-11-22T12:05:57.624Z,1.16
2023-11-22T12:08:26.095Z,1.18
2023-11-22T12:10:57.737Z,1.20
2023-11-22T12:13:27.444Z,1.21
2023-11-22T12:15:56.416Z,1.21
2023-11-22T12:18:25.557Z,1.17
2023-11-22T12:20:58.889Z,1.15
2023-11-22T12:23:28.942Z,1.12
2023-11-22T12:26:03.490Z,1.08
2023-11-22T12:28:34.323Z,1.05
2023-11-22T12:31:13.841Z,1.00
2023-11-22T12:33:44.062Z,0.95
2023-11-22T12:36:17.865Z,0.90
2023-11-22T12:38:46.467Z,0.85
2023-11-22T12:41:16.104Z,0.80
2023-11-22T12:43:49.007Z,0.80
2023-11-22T12:46:19.824Z,0.79
2023-11-22T12:48:48.477Z,0.78
2023-11-22T12:51:18.694Z,0.79
2023-11-22T12:53:51.582Z,0.80
2023-11-22T12:56:20.183Z,0.77
2023-11-22T12:58:49.365Z,0.74
2023-11-22T13:01:18.255Z,0.69
2023-11-22T13:03:46.862Z,0.67
2023-11-22T13:06:15.795Z,0.65
2023-11-22T13:08:44.426Z,0.64
2023-11-22T13:11:12.900Z,0.62
2023-11-22T13:13:41.580Z,0.55
2023-11-22T13:16:11.068Z,0.48
2023-11-22T13:18:39.456Z,0.42
2023-11-22T13:21:08.150Z,0.35
2023-11-22T13:23:36.870Z,0.31
2023-11-22T13:26:07.135Z,0.28
2023-11-22T13:28:35.846Z,0.25
2023-11-22T13:31:04.262Z,0.21
2023-11-22T13:33:32.821Z,0.20
2023-11-22T13:36:01.826Z,0.20
2023-11-22T13:38:30.702Z,0.17
2023-11-22T13:41:00.082Z,0.17
2023-11-22T13:43:28.581Z,0.16
2023-11-22T13:45:56.994Z,0.16
2023-11-22T13:48:26.523Z,0.17
2023-11-22T13:50:55.376Z,0.19
2023-11-22T13:53:24.083Z,0.22
2023-11-22T13:55:55.272Z,0.21
2023-11-22T13:58:24.186Z,0.22
2023-11-22T14:00:55.752Z,0.21
2023-11-22T14:03:24.735Z,0.19
2023-11-22T14:05:56.911Z,0.16
2023-11-22T14:08:27.090Z,0.13
2023-11-22T14:10:55.915Z,0.09
2023-11-22T14:13:24.596Z,0.06
2023-11-22T14:15:55.849Z,0.03
2023-11-22T14:18:24.584Z,0.01
2023-11-22T14:20:55.727Z,-0.02
2023-11-22T14:23:24.491Z,-0.07
2023-11-22T14:25:53.850Z,-0.11
2023-11-22T14:28:24.453Z,-0.14
2023-11-22T14:30:56.273Z,-0.16
2023-11-22T14:33:25.316Z,-0.18
2023-11-22T14:35:56.093Z,-0.21
2023-11-22T14:38:28.573Z,-0.23
2023-11-22T14:40:58.688Z,-0.27
2023-11-22T14:43:27.870Z,-0.33
2023-11-22T14:45:58.233Z,-0.40
2023-11-22T14:48:28.604Z,-0.45
2023-11-22T14:50:59.336Z,-0.51
2023-11-22T14:53:29.868Z,-0.57
2023-11-22T14:55:59.810Z,-0.61
2023-11-22T14:58:31.049Z,-0.65
2023-11-22T15:00:59.720Z,-0.69
2023-11-22T15:03:30.485Z,-0.74
2023-11-22T15:05:59.821Z,-0.76
2023-11-22T15:08:29.788Z,-0.79
2023-11-22T15:10:58.770Z,-0.79
2023-11-22T15:13:29.115Z,-0.80
2023-11-22T15:15:58.614Z,-0.80
2023-11-22T15:18:29.041Z,-0.80
2023-11-22T15:20:59.110Z,-0.78
2023-11-22T15:23:27.597Z,-0.76
2023-11-22T15:25:56.104Z,-0.75
2023-11-22T15:28:24.795Z,-0.72
2023-11-22T15:31:01.712Z,-0.71
2023-11-22T15:33:30.973Z,-0.71
2023-11-22T15:35:59.599Z,-0.69
2023-11-22T15:38:28.264Z,-0.68
2023-11-22T15:41:04.971Z,-0.65
2023-11-22T15:43:41.386Z,-0.63
2023-11-22T15:46:14.398Z,-0.60
2023-11-22T15:48:45.918Z,-0.58
2023-11-22T15:51:17.953Z,-0.57
2023-11-22T15:53:47.770Z,-0.56
2023-11-22T15:56:17.575Z,-0.53
2023-11-22T15:58:47.569Z,-0.50
2023-11-22T16:01:16.191Z,-0.48
2023-11-22T16:03:45.926Z,-0.46
2023-11-22T16:06:14.950Z,-0.44
2023-11-22T16:08:44.277Z,-0.42
2023-11-22T16:11:14.316Z,-0.39
2023-11-22T16:13:46.209Z,-0.39
2023-11-22T16:16:15.396Z,-0.38
2023-11-22T16:18:44.960Z,-0.37
2023-11-22T16:21:14.617Z,-0.39
2023-11-22T16:23:44.386Z,-0.39
2023-11-22T16:26:13.014Z,-0.39
2023-11-22T16:28:43.195Z,-0.37
2023-11-22T16:31:12.931Z,-0.38
2023-11-22T16:33:42.393Z,-0.39
2023-11-22T16:36:12.873Z,-0.37
2023-11-22T16:38:42.150Z,-0.37
2023-11-22T16:41:13.072Z,-0.37
2023-11-22T16:43:42.832Z,-0.36
2023-11-22T16:46:13.290Z,-0.36
2023-11-22T16:48:45.724Z,-0.36
2023-11-22T16:51:17.140Z,-0.37
2023-11-22T16:53:45.840Z,-0.37
2023-11-22T17:12:01.747Z,-0.33
2023-11-22T17:16:02.772Z,-0.31
2023-11-22T17:20:29.536Z,-0.28
2023-11-22T17:28:37.925Z,-0.26
2023-11-22T17:36:07.895Z,-0.24
2023-11-22T17:39:29.765Z,-0.23
2023-11-22T17:46:45.807Z,-0.21
2023-11-22T17:49:15.602Z,-0.21
2023-11-22T17:51:45.660Z,-0.21
2023-11-22T17:54:14.844Z,-0.21
2023-11-22T17:56:43.643Z,-0.22
2023-11-22T17:59:12.549Z,-0.21
2023-11-22T18:01:41.468Z,-0.21
2023-11-22T18:04:12.953Z,-0.22
2023-11-22T18:06:57.900Z,-0.22
2023-11-22T18:20:11.858Z,-0.27
2023-11-22T18:22:58.129Z,-0.30
2023-11-22T18:25:42.047Z,-0.32
2023-11-22T18:28:24.891Z,-0.33
2023-11-22T18:35:10.219Z,-0.37
2023-11-22T18:37:59.714Z,-0.38
2023-11-22T18:46:09.198Z,-0.41
2023-11-22T18:48:53.802Z,-0.42
2023-11-22T18:51:39.321Z,-0.42
2023-11-22T18:54:30.629Z,-0.42
2023-11-22T18:58:28.710Z,-0.44
2023-11-22T19:01:17.735Z,-0.46
2023-11-22T19:07:30.428Z,-0.45
2023-11-22T19:10:01.406Z,-0.46
2023-11-22T19:12:33.484Z,-0.47
2023-11-22T19:15:04.239Z,-0.47
2023-11-22T19:17:35.785Z,-0.49
2023-11-22T19:20:08.553Z,-0.49
2023-11-22T19:22:43.194Z,-0.49
2023-11-22T19:25:17.905Z,-0.50
2023-11-22T19:27:50.376Z,-0.51
2023-11-22T19:30:21.398Z,-0.52
2023-11-22T19:32:51.674Z,-0.53
2023-11-22T19:35:23.439Z,-0.54
2023-11-22T19:37:55.692Z,-0.54
2023-11-22T19:40:27.369Z,-0.54
2023-11-22T19:42:58.617Z,-0.53
2023-11-22T19:45:31.720Z,-0.52
2023-11-22T19:48:03.024Z,-0.51
2023-11-22T19:50:34.660Z,-0.50
2023-11-22T19:53:05.393Z,-0.49
2023-11-22T19:55:35.874Z,-0.48
2023-11-22T19:58:06.049Z,-0.49
2023-11-22T20:00:35.895Z,-0.50
2023-11-22T20:03:05.284Z,-0.50
2023-11-22T20:05:35.237Z,-0.51
2023-11-22T20:08:04.401Z,-0.52
2023-11-22T20:10:34.428Z,-0.54
2023-11-22T20:13:03.266Z,-0.56
2023-11-22T20:15:33.034Z,-0.56
2023-11-22T20:18:02.293Z,-0.57
2023-11-22T20:20:31.843Z,-0.56
2023-11-22T20:23:01.843Z,-0.56
2023-11-22T20:25:31.037Z,-0.56
2023-11-22T20:27:59.845Z,-0.56
2023-11-22T20:30:28.831Z,-0.56
2023-11-22T20:32:57.520Z,-0.57
2023-11-22T20:35:27.528Z,-0.57
2023-11-22T20:37:57.652Z,-0.58
2023-11-22T20:40:26.651Z,-0.58
2023-11-22T20:42:55.584Z,-0.57
2023-11-22T20:45:24.731Z,-0.57
2023-11-22T20:47:53.724Z,-0.55
2023-11-22T20:50:25.380Z,-0.54
2023-11-22T20:52:55.526Z,-0.53
2023-11-22T20:55:24.388Z,-0.51
2023-11-22T20:57:53.296Z,-0.49
2023-11-22T21:00:25.746Z,-0.48
2023-11-22T21:02:55.847Z,-0.45
2023-11-22T21:05:25.884Z,-0.44
2023-11-22T21:07:54.783Z,-0.42
2023-11-22T21:10:24.100Z,-0.41
2023-11-22T21:12:55.827Z,-0.41
2023-11-22T21:15:25.849Z,-0.39
2023-11-22T21:17:56.407Z,-0.39
2023-11-22T21:20:27.441Z,-0.39
2023-11-22T21:22:56.825Z,-0.39
2023-11-22T21:25:25.432Z,-0.39
2023-11-22T21:27:54.302Z,-0.37
2023-11-22T21:30:23.157Z,-0.37
2023-11-22T21:32:53.107Z,-0.34
2023-11-22T21:35:22.417Z,-0.33
2023-11-22T21:37:51.507Z,-0.32
2023-11-22T21:40:20.498Z,-0.31
2023-11-22T21:42:49.584Z,-0.28
2023-11-22T21:45:18.185Z,-0.26
2023-11-22T21:47:46.990Z,-0.24
2023-11-22T21:50:15.987Z,-0.22
2023-11-22T21:52:45.577Z,-0.19
2023-11-22T21:55:14.865Z,-0.18
2023-11-22T21:57:45.292Z,-0.16
2023-11-22T22:00:16.254Z,-0.14
2023-11-22T22:02:45.540Z,-0.11
2023-11-22T22:05:14.326Z,-0.08
2023-11-22T22:07:42.844Z,-0.06
2023-11-22T22:10:11.487Z,-0.03
2023-11-22T22:12:40.313Z,-0.01
2023-11-22T22:15:10.173Z,0.01
2023-11-22T22:17:39.164Z,0.04
2023-11-22T22:20:08.450Z,0.06
2023-11-22T22:22:37.486Z,0.08
2023-11-22T22:25:06.382Z,0.09
2023-11-22T22:27:34.747Z,0.08
2023-11-22T22:30:03.474Z,0.08
2023-11-22T22:32:32.509Z,0.08
2023-11-22T22:35:01.126Z,0.07
2023-11-22T22:37:29.469Z,0.05
2023-11-22T22:39:57.673Z,0.02
2023-11-22T22:42:26.355Z,0.01
2023-11-22T22:44:54.747Z,-0.02
2023-11-22T22:47:23.103Z,-0.03
2023-11-22T22:49:51.740Z,-0.05
2023-11-22T22:52:20.680Z,-0.07
2023-11-22T22:54:49.173Z,-0.10
2023-11-22T22:57:17.634Z,-0.13
2023-11-22T22:59:46.705Z,-0.16
2023-11-22T23:02:15.355Z,-0.18
2023-11-22T23:04:46.836Z,-0.21
2023-11-22T23:07:15.253Z,-0.23
2023-11-22T23:09:45.288Z,-0.26
2023-11-22T23:12:13.769Z,-0.28
2023-11-22T23:14:42.240Z,-0.31
2023-11-22T23:17:10.838Z,-0.32
2023-11-22T23:19:39.201Z,-0.33
2023-11-22T23:22:07.989Z,-0.35
2023-11-22T23:24:38.204Z,-0.39
2023-11-22T23:27:07.460Z,-0.40
2023-11-22T23:29:40.131Z,-0.42
2023-11-22T23:32:11.322Z,-0.43
2023-11-22T23:34:40.324Z,-0.44
2023-11-22T23:37:09.837Z,-0.44
2023-11-22T23:39:38.317Z,-0.45
2023-11-22T23:42:14.245Z,-0.45
2023-11-22T23:44:42.871Z,-0.46
2023-11-22T23:47:12.164Z,-0.46
2023-11-22T23:49:40.428Z,-0.47
2023-11-22T23:52:08.800Z,-0.47
2023-11-22T23:54:37.193Z,-0.46
2023-11-22T23:57:06.416Z,-0.46
2023-11-22T23:59:37.596Z,-0.46
